Weather at Kuching International Airport

Public forecast

Using degrees Celsius for public forecast. Weather courtesy of forecast.io.

Current aviation weather report (METAR) for Kuching International Airport

Retrieved 2021/03/03 23:30 UTC (0 seconds ago):

WBGG 032330Z VRB03KT 6000 -TSRA FEW001 FEW015CB SCT020 24/23 Q1012 NOSIG

Aviation forecast (TAF) for Kuching International Airport

Forecast is more than 6 hours old.

Retrieved 2021/03/03 12:09 UTC (11 hours ago):

TAF WBGG 031100Z 0312/0412 03005KT 9999 FEW020